createdAt,value
2018-04-22T00:00:59.629Z,978.69
2018-04-22T00:02:00.445Z,978.69
2018-04-22T00:02:59.647Z,978.67
2018-04-22T00:03:59.632Z,978.66
2018-04-22T00:04:59.628Z,978.64
2018-04-22T00:05:59.629Z,978.65
2018-04-22T00:06:59.629Z,978.65
2018-04-22T00:07:59.673Z,978.64
2018-04-22T00:08:59.629Z,978.62
2018-04-22T00:09:59.629Z,978.62
2018-04-22T00:10:59.629Z,978.58
2018-04-22T00:11:59.629Z,978.57
2018-04-22T00:12:59.670Z,978.58
2018-04-22T00:13:59.630Z,978.53
2018-04-22T00:14:59.696Z,978.56
2018-04-22T00:15:59.630Z,978.54
2018-04-22T00:16:59.630Z,978.53
2018-04-22T00:17:59.679Z,978.57
2018-04-22T00:18:59.633Z,978.56
2018-04-22T00:19:59.627Z,978.55
2018-04-22T00:20:59.631Z,978.53
2018-04-22T00:21:59.631Z,978.50
2018-04-22T00:22:59.671Z,978.52
2018-04-22T00:23:59.662Z,978.55
2018-04-22T00:24:59.627Z,978.50
2018-04-22T00:25:59.632Z,978.49
2018-04-22T00:27:00.624Z,978.49
2018-04-22T00:28:04.796Z,978.49
2018-04-22T00:28:59.633Z,978.47
2018-04-22T00:29:59.628Z,978.46
2018-04-22T00:30:59.936Z,978.44
2018-04-22T00:31:59.628Z,978.43
2018-04-22T00:32:59.677Z,978.40
2018-04-22T00:33:59.629Z,978.39
2018-04-22T00:35:01.467Z,978.38
2018-04-22T00:35:59.630Z,978.40
2018-04-22T00:36:59.633Z,978.42
2018-04-22T00:37:59.666Z,978.39
2018-04-22T00:38:59.629Z,978.37
2018-04-22T00:39:59.630Z,978.37
2018-04-22T00:40:59.626Z,978.32
2018-04-22T00:41:59.626Z,978.34
2018-04-22T00:42:59.675Z,978.34
2018-04-22T00:43:59.627Z,978.33
2018-04-22T00:44:59.627Z,978.34
2018-04-22T00:45:59.628Z,978.29
2018-04-22T00:46:59.628Z,978.28
2018-04-22T00:47:59.669Z,978.27
2018-04-22T00:48:59.628Z,978.24
2018-04-22T00:49:59.627Z,978.25
2018-04-22T00:50:59.624Z,978.23
2018-04-22T00:51:59.630Z,978.18
2018-04-22T00:52:59.673Z,978.18
2018-04-22T00:54:00.373Z,978.16
2018-04-22T00:54:59.684Z,978.15
2018-04-22T00:55:59.626Z,978.16
2018-04-22T00:56:59.666Z,978.13
2018-04-22T00:57:59.630Z,978.17
2018-04-22T00:58:59.627Z,978.15
2018-04-22T00:59:59.622Z,978.19
2018-04-22T01:00:59.623Z,978.17
2018-04-22T01:01:59.666Z,978.17
2018-04-22T01:02:59.626Z,978.13
2018-04-22T01:03:59.623Z,978.10
2018-04-22T01:04:59.622Z,978.13
2018-04-22T01:05:59.624Z,978.11
2018-04-22T01:06:59.668Z,978.13
2018-04-22T01:07:59.623Z,978.13
2018-04-22T01:08:59.620Z,978.14
2018-04-22T01:09:59.620Z,978.18
2018-04-22T01:10:59.621Z,978.13
2018-04-22T01:11:59.664Z,978.16
2018-04-22T01:12:59.619Z,978.16
2018-04-22T01:13:59.626Z,978.15
2018-04-22T01:14:59.616Z,978.12
2018-04-22T01:15:59.616Z,978.16
2018-04-22T01:16:59.661Z,978.15
2018-04-22T01:17:59.623Z,978.14
2018-04-22T01:18:59.621Z,978.13
2018-04-22T01:19:59.615Z,978.13
2018-04-22T01:20:59.618Z,978.13
2018-04-22T01:22:00.043Z,978.10
2018-04-22T01:22:59.619Z,978.10
2018-04-22T01:23:59.612Z,978.11
2018-04-22T01:24:59.618Z,978.08
2018-04-22T01:25:59.617Z,978.10
2018-04-22T01:26:59.664Z,978.11
2018-04-22T01:27:59.614Z,978.10
2018-04-22T01:28:59.620Z,978.08
2018-04-22T01:29:59.613Z,978.06
2018-04-22T01:30:59.611Z,978.05
2018-04-22T01:31:59.659Z,978.02
2018-04-22T01:32:59.615Z,977.98
2018-04-22T01:33:59.615Z,977.96
2018-04-22T01:34:59.616Z,977.94
2018-04-22T01:35:59.652Z,977.96
2018-04-22T01:37:00.442Z,977.96
2018-04-22T01:37:59.612Z,977.96
2018-04-22T01:38:59.612Z,977.96
2018-04-22T01:39:59.613Z,977.94
2018-04-22T01:40:59.657Z,977.96
2018-04-22T01:41:59.613Z,977.89
2018-04-22T01:42:59.613Z,977.93
2018-04-22T01:43:59.611Z,977.89
2018-04-22T01:44:59.610Z,977.91
2018-04-22T01:46:13.806Z,977.89
2018-04-22T01:46:59.611Z,977.91
2018-04-22T01:47:59.611Z,977.92
2018-04-22T01:48:59.606Z,977.93
2018-04-22T01:49:59.611Z,977.94
2018-04-22T01:50:59.612Z,977.95
2018-04-22T01:51:59.811Z,977.95
2018-04-22T01:52:59.607Z,977.95
2018-04-22T01:53:59.607Z,977.91
2018-04-22T01:54:59.608Z,977.90
2018-04-22T01:55:59.603Z,977.91
2018-04-22T01:56:59.603Z,977.87
2018-04-22T01:57:59.657Z,977.89
2018-04-22T01:58:59.600Z,977.85
2018-04-22T01:59:59.603Z,977.84
2018-04-22T02:00:59.600Z,977.82
2018-04-22T02:01:59.600Z,977.81
2018-04-22T02:02:59.637Z,977.81
2018-04-22T02:03:59.596Z,977.83
2018-04-22T02:04:59.595Z,977.82
2018-04-22T02:05:59.602Z,977.83
2018-04-22T02:06:59.600Z,977.82
2018-04-22T02:07:59.647Z,977.83
2018-04-22T02:08:59.596Z,977.83
2018-04-22T02:09:59.596Z,977.80
2018-04-22T02:10:59.596Z,977.83
2018-04-22T02:11:59.647Z,977.81
2018-04-22T02:12:59.646Z,977.77
2018-04-22T02:13:59.584Z,977.77
2018-04-22T02:14:59.596Z,977.75
2018-04-22T02:15:59.595Z,977.75
2018-04-22T02:16:59.589Z,977.74
2018-04-22T02:17:59.628Z,977.74
2018-04-22T02:18:59.604Z,977.74
2018-04-22T02:19:59.589Z,977.73
2018-04-22T02:20:59.594Z,977.70
2018-04-22T02:22:00.072Z,977.73
2018-04-22T02:22:59.639Z,977.71
2018-04-22T02:23:59.585Z,977.71
2018-04-22T02:24:59.590Z,977.71
2018-04-22T02:25:59.586Z,977.68
2018-04-22T02:26:59.589Z,977.66
2018-04-22T02:28:00.486Z,977.65
2018-04-22T02:28:59.582Z,977.64
2018-04-22T02:29:59.576Z,977.61
2018-04-22T02:30:59.583Z,977.61
2018-04-22T02:31:59.622Z,977.65
2018-04-22T02:32:59.577Z,977.62
2018-04-22T02:33:59.582Z,977.62
2018-04-22T02:34:59.657Z,977.62
2018-04-22T02:35:59.574Z,977.61
2018-04-22T02:36:59.617Z,977.56
2018-04-22T02:38:00.111Z,977.58
2018-04-22T02:38:59.573Z,977.60
2018-04-22T02:39:59.573Z,977.57
2018-04-22T02:40:59.575Z,977.57
2018-04-22T02:41:59.622Z,977.59
2018-04-22T02:42:59.579Z,977.60
2018-04-22T02:43:59.570Z,977.61
2018-04-22T02:44:59.569Z,977.59
2018-04-22T02:45:59.573Z,977.55
2018-04-22T02:46:59.610Z,977.59
2018-04-22T02:47:59.575Z,977.56
2018-04-22T02:48:59.572Z,977.58
2018-04-22T02:49:59.564Z,977.56
2018-04-22T02:50:59.660Z,977.57
2018-04-22T02:51:59.651Z,977.55
2018-04-22T02:52:59.571Z,977.53
2018-04-22T02:53:59.564Z,977.58
2018-04-22T02:54:59.593Z,977.56
2018-04-22T02:55:59.557Z,977.55
2018-04-22T02:56:59.609Z,977.53
2018-04-22T02:57:59.558Z,977.52
2018-04-22T02:58:59.561Z,977.52
2018-04-22T02:59:59.557Z,977.56
2018-04-22T03:00:59.556Z,977.54
2018-04-22T03:01:59.602Z,977.55
2018-04-22T03:02:59.554Z,977.52
2018-04-22T03:03:59.554Z,977.55
2018-04-22T03:04:59.556Z,977.52
2018-04-22T03:05:59.550Z,977.52
2018-04-22T03:06:59.603Z,977.50
2018-04-22T03:07:59.552Z,977.49
2018-04-22T03:08:59.551Z,977.50
2018-04-22T03:09:59.561Z,977.53
2018-04-22T03:10:59.545Z,977.48
2018-04-22T03:11:59.546Z,977.50
2018-04-22T03:12:59.595Z,977.49
2018-04-22T03:13:59.543Z,977.50
2018-04-22T03:14:59.555Z,977.48
2018-04-22T03:15:59.539Z,977.48
2018-04-22T03:16:59.540Z,977.50
2018-04-22T03:17:59.596Z,977.48
2018-04-22T03:18:59.539Z,977.47
2018-04-22T03:19:59.541Z,977.42
2018-04-22T03:20:59.536Z,977.38
2018-04-22T03:21:59.534Z,977.39
2018-04-22T03:22:59.580Z,977.42
2018-04-22T03:23:59.536Z,977.39
2018-04-22T03:24:59.530Z,977.36
2018-04-22T03:25:59.553Z,977.39
2018-04-22T03:26:59.533Z,977.31
2018-04-22T03:28:02.808Z,977.34
2018-04-22T03:28:59.529Z,977.32
2018-04-22T03:29:59.536Z,977.30
2018-04-22T03:30:59.524Z,977.28
2018-04-22T03:31:59.522Z,977.28
2018-04-22T03:32:59.569Z,977.30
2018-04-22T03:33:59.525Z,977.28
2018-04-22T03:34:59.560Z,977.28
2018-04-22T03:35:59.525Z,977.27
2018-04-22T03:36:59.529Z,977.28
2018-04-22T03:37:59.562Z,977.30
2018-04-22T03:38:59.518Z,977.26
2018-04-22T03:39:59.526Z,977.30
2018-04-22T03:40:59.519Z,977.30
2018-04-22T03:41:59.518Z,977.28
2018-04-22T03:42:59.605Z,977.24
2018-04-22T03:43:59.537Z,977.28
2018-04-22T03:44:59.513Z,977.27
2018-04-22T03:46:00.143Z,977.28
2018-04-22T03:46:59.512Z,977.25
2018-04-22T03:47:59.561Z,977.24
2018-04-22T03:48:59.511Z,977.24
2018-04-22T03:49:59.513Z,977.26
2018-04-22T03:50:59.500Z,977.24
2018-04-22T03:51:59.507Z,977.23
2018-04-22T03:52:59.563Z,977.20
2018-04-22T03:53:59.496Z,977.18
2018-04-22T03:54:59.498Z,977.19
2018-04-22T03:55:59.505Z,977.16
2018-04-22T03:56:59.523Z,977.13
2018-04-22T03:57:59.559Z,977.13
2018-04-22T03:58:59.514Z,977.11
2018-04-22T03:59:59.518Z,977.10
2018-04-22T04:00:59.500Z,977.11
2018-04-22T04:01:59.521Z,977.11
2018-04-22T04:02:59.558Z,977.15
2018-04-22T04:03:59.497Z,977.09
2018-04-22T04:04:59.499Z,977.09
2018-04-22T04:05:59.496Z,977.11
2018-04-22T04:06:59.499Z,977.08
2018-04-22T04:07:59.542Z,977.09
2018-04-22T04:08:59.513Z,977.14
2018-04-22T04:09:59.489Z,977.11
2018-04-22T04:10:59.488Z,977.10
2018-04-22T04:11:59.503Z,977.09
2018-04-22T04:13:02.823Z,977.05
2018-04-22T04:13:59.566Z,977.09
2018-04-22T04:14:59.489Z,977.06
2018-04-22T04:15:59.499Z,977.04
2018-04-22T04:16:59.481Z,977.08
2018-04-22T04:17:59.630Z,977.02
2018-04-22T04:18:59.479Z,976.98
2018-04-22T04:19:59.481Z,976.96
2018-04-22T04:20:59.468Z,976.98
2018-04-22T04:21:59.467Z,977.00
2018-04-22T04:22:59.472Z,977.00
2018-04-22T04:23:59.599Z,976.97
2018-04-22T04:24:59.481Z,976.99
2018-04-22T04:25:59.473Z,977.02
2018-04-22T04:26:59.471Z,977.02
2018-04-22T04:27:59.464Z,976.97
2018-04-22T04:28:59.527Z,977.02
2018-04-22T04:29:59.466Z,977.01
2018-04-22T04:30:59.465Z,977.03
2018-04-22T04:31:59.466Z,977.03
2018-04-22T04:32:59.464Z,977.01
2018-04-22T04:33:59.511Z,977.01
2018-04-22T04:34:59.457Z,977.01
2018-04-22T04:35:59.500Z,976.97
2018-04-22T04:37:00.025Z,977.01
2018-04-22T04:37:59.451Z,977.02
2018-04-22T04:38:59.499Z,977.01
2018-04-22T04:39:59.458Z,977.03
2018-04-22T04:40:59.454Z,977.01
2018-04-22T04:41:59.455Z,977.03
2018-04-22T04:42:59.448Z,977.07
2018-04-22T04:43:59.509Z,977.05
2018-04-22T04:44:59.463Z,977.05
2018-04-22T04:45:59.448Z,977.01
2018-04-22T04:46:59.449Z,977.02
2018-04-22T04:47:59.447Z,977.02
2018-04-22T04:48:59.938Z,977.02
2018-04-22T04:49:59.443Z,977.01
2018-04-22T04:50:59.448Z,977.02
2018-04-22T04:51:59.448Z,977.00
2018-04-22T04:52:59.693Z,977.02
2018-04-22T04:53:59.438Z,976.97
2018-04-22T04:54:59.454Z,977.00
2018-04-22T04:55:59.439Z,977.02
2018-04-22T04:56:59.443Z,977.00
2018-04-22T04:57:59.443Z,977.00
2018-04-22T04:58:59.474Z,976.97
2018-04-22T04:59:59.433Z,977.00
2018-04-22T05:00:59.443Z,976.98
2018-04-22T05:01:59.436Z,977.01
2018-04-22T05:02:59.438Z,977.01
2018-04-22T05:04:01.313Z,977.03
2018-04-22T05:04:59.434Z,977.06
2018-04-22T05:06:00.140Z,977.04
2018-04-22T05:06:59.457Z,977.05
2018-04-22T05:07:59.505Z,977.07
2018-04-22T05:08:59.445Z,977.06
2018-04-22T05:09:59.434Z,977.07
2018-04-22T05:10:59.459Z,977.11
2018-04-22T05:11:59.434Z,977.15
2018-04-22T05:12:59.665Z,977.15
2018-04-22T05:13:59.429Z,977.14
2018-04-22T05:14:59.437Z,977.13
2018-04-22T05:15:59.432Z,977.13
2018-04-22T05:16:59.429Z,977.12
2018-04-22T05:17:59.486Z,977.11
2018-04-22T05:18:59.429Z,977.12
2018-04-22T05:19:59.434Z,977.06
2018-04-22T05:20:59.431Z,977.07
2018-04-22T05:21:59.435Z,977.13
2018-04-22T05:22:59.480Z,977.14
2018-04-22T05:23:59.437Z,977.13
2018-04-22T05:24:59.435Z,977.09
2018-04-22T05:25:59.449Z,977.17
2018-04-22T05:26:59.427Z,977.19
2018-04-22T05:28:10.326Z,977.17
2018-04-22T05:28:59.440Z,977.19
2018-04-22T05:29:59.435Z,977.15
2018-04-22T05:30:59.433Z,977.18
2018-04-22T05:31:59.442Z,977.22
2018-04-22T05:32:59.485Z,977.20
2018-04-22T05:33:59.441Z,977.19
2018-04-22T05:34:59.441Z,977.21
2018-04-22T05:35:59.443Z,977.22
2018-04-22T05:36:59.445Z,977.20
2018-04-22T05:38:01.471Z,977.18
2018-04-22T05:38:59.448Z,977.19
2018-04-22T05:39:59.470Z,977.17
2018-04-22T05:40:59.476Z,977.22
2018-04-22T05:41:59.483Z,977.22
2018-04-22T05:42:59.472Z,977.23
2018-04-22T05:43:59.516Z,977.24
2018-04-22T05:44:59.477Z,977.28
2018-04-22T05:45:59.482Z,977.28
2018-04-22T05:46:59.481Z,977.30
2018-04-22T05:47:59.481Z,977.28
2018-04-22T05:48:59.542Z,977.29
2018-04-22T05:49:59.486Z,977.24
2018-04-22T05:50:59.490Z,977.26
2018-04-22T05:51:59.495Z,977.19
2018-04-22T05:52:59.494Z,977.20
2018-04-22T05:53:59.544Z,977.19
2018-04-22T05:54:59.507Z,977.18
2018-04-22T05:55:59.499Z,977.21
2018-04-22T05:56:59.506Z,977.19
2018-04-22T05:57:59.518Z,977.17
2018-04-22T05:58:59.551Z,977.21
2018-04-22T05:59:59.512Z,977.19
2018-04-22T06:00:59.516Z,977.19
2018-04-22T06:01:59.527Z,977.19
2018-04-22T06:02:59.522Z,977.23
2018-04-22T06:03:59.708Z,977.19
2018-04-22T06:04:59.532Z,977.20
2018-04-22T06:05:59.525Z,977.16
2018-04-22T06:06:59.527Z,977.16
2018-04-22T06:07:59.529Z,977.16
2018-04-22T06:08:59.559Z,977.17
2018-04-22T06:09:59.587Z,977.17
2018-04-22T06:10:59.548Z,977.17
2018-04-22T06:11:59.549Z,977.14
2018-04-22T06:12:59.549Z,977.16
2018-04-22T06:13:59.555Z,977.15
2018-04-22T06:14:59.605Z,977.16
2018-04-22T06:15:59.560Z,977.11
2018-04-22T06:16:59.562Z,977.11
2018-04-22T06:17:59.568Z,977.11
2018-04-22T06:18:59.580Z,977.11
2018-04-22T06:20:02.832Z,977.11
2018-04-22T06:20:59.572Z,977.11
2018-04-22T06:21:59.576Z,977.12
2018-04-22T06:22:59.591Z,977.13
2018-04-22T06:23:59.598Z,977.11
2018-04-22T06:25:00.890Z,977.08
2018-04-22T06:25:59.596Z,977.10
2018-04-22T06:27:00.307Z,977.06
2018-04-22T06:27:59.619Z,977.07
2018-04-22T06:29:00.152Z,977.06
2018-04-22T06:29:59.656Z,977.05
2018-04-22T06:30:59.622Z,977.07
2018-04-22T06:31:59.630Z,977.04
2018-04-22T06:32:59.634Z,977.03
2018-04-22T06:33:59.644Z,977.04
2018-04-22T06:34:59.771Z,977.02
2018-04-22T06:35:59.639Z,977.03
2018-04-22T06:36:59.646Z,977.02
2018-04-22T06:37:59.650Z,977.04
2018-04-22T06:38:59.764Z,977.01
2018-04-22T06:39:59.723Z,977.03
2018-04-22T06:41:00.650Z,977.03
2018-04-22T06:41:59.671Z,977.03
2018-04-22T06:43:03.146Z,977.03
2018-04-22T06:43:59.694Z,977.03
2018-04-22T06:45:02.147Z,977.05
2018-04-22T06:45:59.705Z,977.03
2018-04-22T06:47:01.384Z,977.05
2018-04-22T06:47:59.716Z,977.04
2018-04-22T06:48:59.847Z,977.03
2018-04-22T06:49:59.800Z,977.03
2018-04-22T06:50:59.737Z,977.01
2018-04-22T06:51:59.736Z,977.01
2018-04-22T06:52:59.742Z,977.04
2018-04-22T06:53:59.751Z,977.07
2018-04-22T06:55:02.318Z,977.06
2018-04-22T06:55:59.811Z,977.07
2018-04-22T06:56:59.837Z,977.00
2018-04-22T06:57:59.776Z,977.02
2018-04-22T06:58:59.784Z,977.05
2018-04-22T06:59:59.797Z,977.04
2018-04-22T07:00:59.842Z,977.03
2018-04-22T07:01:59.801Z,977.03
2018-04-22T07:02:59.853Z,977.01
2018-04-22T07:04:14.811Z,977.02
2018-04-22T07:04:59.854Z,977.04
2018-04-22T07:06:01.652Z,977.03
2018-04-22T07:06:59.842Z,976.97
2018-04-22T07:07:59.956Z,976.99
2018-04-22T07:08:59.856Z,977.01
2018-04-22T07:10:10.863Z,976.99
2018-04-22T07:10:59.871Z,976.98
2018-04-22T07:12:02.800Z,976.92
2018-04-22T07:12:59.896Z,976.94
2018-04-22T07:13:59.891Z,976.97
2018-04-22T07:14:59.963Z,976.91
2018-04-22T07:15:59.911Z,976.94
2018-04-22T07:16:59.960Z,976.90
2018-04-22T07:17:59.970Z,976.90
2018-04-22T07:18:59.951Z,976.86
2018-04-22T07:19:59.999Z,976.86
2018-04-22T07:20:59.964Z,976.89
2018-04-22T07:21:59.970Z,976.88
2018-04-22T07:22:59.986Z,976.89
2018-04-22T07:23:59.993Z,976.91
2018-04-22T07:25:00.061Z,976.85
2018-04-22T07:26:00.003Z,976.86
2018-04-22T07:27:00.028Z,976.87
2018-04-22T07:28:00.088Z,976.88
2018-04-22T07:29:00.036Z,976.88
2018-04-22T07:30:00.462Z,976.89
2018-04-22T07:31:00.056Z,976.90
2018-04-22T07:32:00.153Z,976.86
2018-04-22T07:33:00.071Z,976.87
2018-04-22T07:34:00.080Z,976.86
2018-04-22T07:35:00.147Z,976.86
2018-04-22T07:36:00.099Z,976.86
2018-04-22T07:37:00.109Z,976.92
2018-04-22T07:38:00.454Z,976.91
2018-04-22T07:39:00.132Z,976.90
2018-04-22T07:40:00.194Z,976.93
2018-04-22T07:41:00.220Z,976.93
2018-04-22T07:42:00.167Z,976.94
2018-04-22T07:43:00.177Z,976.93
2018-04-22T07:44:00.197Z,976.93
2018-04-22T07:45:00.249Z,976.92
2018-04-22T07:46:00.205Z,976.92
2018-04-22T07:47:00.211Z,976.94
2018-04-22T07:48:00.228Z,976.92
2018-04-22T07:49:00.234Z,976.92
2018-04-22T07:50:00.292Z,976.91
2018-04-22T07:51:00.252Z,976.91
2018-04-22T07:52:00.269Z,976.92
2018-04-22T07:53:00.288Z,976.87
2018-04-22T07:54:00.298Z,976.88
2018-04-22T07:55:00.346Z,976.86
2018-04-22T07:56:00.318Z,976.90
2018-04-22T07:57:00.331Z,976.86
2018-04-22T07:58:00.347Z,976.83
2018-04-22T07:59:00.361Z,976.86
2018-04-22T08:00:00.418Z,976.83
2018-04-22T08:01:00.382Z,976.81
2018-04-22T08:02:00.396Z,976.81
2018-04-22T08:03:00.410Z,976.79
2018-04-22T08:04:00.419Z,976.78
2018-04-22T08:05:02.356Z,976.80
2018-04-22T08:06:00.450Z,976.76
2018-04-22T08:07:00.463Z,976.76
2018-04-22T08:08:00.476Z,976.79
2018-04-22T08:09:00.475Z,976.76
2018-04-22T08:10:00.632Z,976.78
2018-04-22T08:11:00.513Z,976.79
2018-04-22T08:12:01.309Z,976.78
2018-04-22T08:13:00.542Z,976.76
2018-04-22T08:14:00.561Z,976.78
2018-04-22T08:15:00.618Z,976.77
2018-04-22T08:16:00.590Z,976.81
2018-04-22T08:17:00.596Z,976.82
2018-04-22T08:18:00.616Z,976.84
2018-04-22T08:19:00.631Z,976.83
2018-04-22T08:20:00.704Z,976.80
2018-04-22T08:21:00.660Z,976.81
2018-04-22T08:22:00.671Z,976.80
2018-04-22T08:23:00.694Z,976.83
2018-04-22T08:24:00.750Z,976.81
2018-04-22T08:25:00.796Z,976.83
2018-04-22T08:26:01.191Z,976.85
2018-04-22T08:27:00.964Z,976.83
2018-04-22T08:28:00.761Z,976.84
2018-04-22T08:29:00.781Z,976.82
2018-04-22T08:30:01.835Z,976.82
2018-04-22T08:31:00.808Z,976.82
2018-04-22T08:32:00.829Z,976.80
2018-04-22T08:33:00.843Z,976.79
2018-04-22T08:34:00.894Z,976.80
2018-04-22T08:35:01.008Z,976.82
2018-04-22T08:36:01.443Z,976.80
2018-04-22T08:37:00.908Z,976.79
2018-04-22T08:38:00.929Z,976.77
2018-04-22T08:39:00.940Z,976.81
2018-04-22T08:40:01.016Z,976.80
2018-04-22T08:41:00.991Z,976.76
2018-04-22T08:42:00.991Z,976.74
2018-04-22T08:43:01.003Z,976.76
2018-04-22T08:44:01.039Z,976.77
2018-04-22T08:45:01.091Z,976.77
2018-04-22T08:46:01.050Z,976.80
2018-04-22T08:47:01.684Z,976.80
2018-04-22T08:48:01.089Z,976.77
2018-04-22T08:49:01.106Z,976.77
2018-04-22T08:50:01.179Z,976.80
2018-04-22T08:51:01.221Z,976.80
2018-04-22T08:52:01.190Z,976.79
2018-04-22T08:53:01.210Z,976.80
2018-04-22T08:54:01.200Z,976.77
2018-04-22T08:55:01.267Z,976.77
2018-04-22T08:56:01.226Z,976.79
2018-04-22T08:57:01.269Z,976.80
2018-04-22T08:58:01.265Z,976.79
2018-04-22T08:59:01.338Z,976.72
2018-04-22T09:00:01.305Z,976.79
2018-04-22T09:01:01.335Z,976.76
2018-04-22T09:02:01.384Z,976.77
2018-04-22T09:03:01.360Z,976.75
2018-04-22T09:04:01.430Z,976.73
2018-04-22T09:05:01.403Z,976.74
2018-04-22T09:06:01.420Z,976.74
2018-04-22T09:07:01.441Z,976.71
2018-04-22T09:08:01.458Z,976.74
2018-04-22T09:09:01.516Z,976.76
2018-04-22T09:10:01.490Z,976.69
2018-04-22T09:11:01.516Z,976.69
2018-04-22T09:12:01.527Z,976.70
2018-04-22T09:13:01.548Z,976.72
2018-04-22T09:14:01.617Z,976.66
2018-04-22T09:15:01.666Z,976.67
2018-04-22T09:16:01.624Z,976.66
2018-04-22T09:17:01.631Z,976.62
2018-04-22T09:18:01.641Z,976.63
2018-04-22T09:19:02.666Z,976.60
2018-04-22T09:20:01.692Z,976.60
2018-04-22T09:21:01.701Z,976.56
2018-04-22T09:22:01.728Z,976.58
2018-04-22T09:23:01.738Z,976.59
2018-04-22T09:24:01.805Z,976.55
2018-04-22T09:25:01.781Z,976.53
2018-04-22T09:26:01.797Z,976.58
2018-04-22T09:27:01.825Z,976.51
2018-04-22T09:28:01.837Z,976.51
2018-04-22T09:29:01.909Z,976.51
2018-04-22T09:30:01.880Z,976.53
2018-04-22T09:31:01.907Z,976.48
2018-04-22T09:32:01.921Z,976.49
2018-04-22T09:33:01.943Z,976.49
2018-04-22T09:34:02.024Z,976.50
2018-04-22T09:35:02.014Z,976.46
2018-04-22T09:36:02.011Z,976.43
2018-04-22T09:37:02.019Z,976.41
2018-04-22T09:38:02.050Z,976.43
2018-04-22T09:39:02.152Z,976.47
2018-04-22T09:40:02.088Z,976.46
2018-04-22T09:41:02.106Z,976.44
2018-04-22T09:42:02.126Z,976.46
2018-04-22T09:43:02.168Z,976.42
2018-04-22T09:44:02.211Z,976.38
2018-04-22T09:45:02.198Z,976.40
2018-04-22T09:46:02.215Z,976.40
2018-04-22T09:47:02.231Z,976.33
2018-04-22T09:48:02.332Z,976.29
2018-04-22T09:49:02.276Z,976.30
2018-04-22T09:50:02.301Z,976.32
2018-04-22T09:51:02.313Z,976.31
2018-04-22T09:52:02.336Z,976.33
2018-04-22T09:53:02.406Z,976.33
2018-04-22T09:54:02.380Z,976.38
2018-04-22T09:55:02.452Z,976.31
2018-04-22T09:56:02.425Z,976.35
2018-04-22T09:57:02.436Z,976.33
2018-04-22T09:58:02.519Z,976.30
2018-04-22T09:59:02.481Z,976.31
2018-04-22T10:00:02.506Z,976.29
2018-04-22T10:01:02.529Z,976.29
2018-04-22T10:02:02.554Z,976.23
2018-04-22T10:03:02.607Z,976.25
2018-04-22T10:04:02.631Z,976.28
2018-04-22T10:05:02.615Z,976.24
2018-04-22T10:06:02.634Z,976.25
2018-04-22T10:07:02.651Z,976.20
2018-04-22T10:08:02.736Z,976.19
2018-04-22T10:09:02.747Z,976.20
2018-04-22T10:10:02.723Z,976.16
2018-04-22T10:11:02.732Z,976.15
2018-04-22T10:12:02.763Z,976.13
2018-04-22T10:13:16.924Z,976.12
2018-04-22T10:14:02.800Z,976.09
2018-04-22T10:15:02.908Z,976.05
2018-04-22T10:16:02.853Z,976.03
2018-04-22T10:17:02.870Z,976.02
2018-04-22T10:18:02.885Z,975.99
2018-04-22T10:19:02.958Z,976.06
2018-04-22T10:20:02.929Z,976.10
2018-04-22T10:21:02.949Z,976.02
2018-04-22T10:22:02.976Z,976.01
2018-04-22T10:23:02.990Z,975.99
2018-04-22T10:24:03.075Z,975.99
2018-04-22T10:25:03.037Z,975.98
2018-04-22T10:26:03.059Z,975.98
2018-04-22T10:27:03.084Z,975.96
2018-04-22T10:28:03.099Z,975.95
2018-04-22T10:29:03.168Z,975.91
2018-04-22T10:30:03.138Z,975.89
2018-04-22T10:31:04.045Z,975.92
2018-04-22T10:32:03.184Z,975.90
2018-04-22T10:33:03.315Z,975.91
2018-04-22T10:34:03.285Z,975.86
2018-04-22T10:35:03.353Z,975.85
2018-04-22T10:36:03.307Z,975.86
2018-04-22T10:37:03.302Z,975.86
2018-04-22T10:38:17.421Z,975.82
2018-04-22T10:39:03.341Z,975.80
2018-04-22T10:40:03.411Z,975.73
2018-04-22T10:41:03.385Z,975.74
2018-04-22T10:42:03.451Z,975.71
2018-04-22T10:43:06.917Z,975.69
2018-04-22T10:44:04.310Z,975.69
2018-04-22T10:45:03.478Z,975.73
2018-04-22T10:46:03.490Z,975.61
2018-04-22T10:47:03.511Z,975.61
2018-04-22T10:48:03.590Z,975.59
2018-04-22T10:49:03.561Z,975.60
2018-04-22T10:50:03.574Z,975.55
2018-04-22T10:51:03.604Z,975.66
2018-04-22T10:52:03.619Z,975.68
2018-04-22T10:53:03.680Z,975.64
2018-04-22T10:54:03.660Z,975.68
2018-04-22T10:55:03.685Z,975.69
2018-04-22T10:56:03.700Z,975.67
2018-04-22T10:57:03.720Z,975.65
2018-04-22T10:58:03.818Z,975.59
2018-04-22T10:59:03.805Z,975.58
2018-04-22T11:00:03.790Z,975.60
2018-04-22T11:01:03.801Z,975.59
2018-04-22T11:02:03.831Z,975.53
2018-04-22T11:03:03.905Z,975.53
2018-04-22T11:04:03.894Z,975.52
2018-04-22T11:05:03.916Z,975.56
2018-04-22T11:06:03.918Z,975.55
2018-04-22T11:07:03.938Z,975.52
2018-04-22T11:08:03.998Z,975.55
2018-04-22T11:09:03.984Z,975.57
2018-04-22T11:10:03.999Z,975.60
2018-04-22T11:11:04.100Z,975.54
2018-04-22T11:12:04.058Z,975.58
2018-04-22T11:13:04.320Z,975.56
2018-04-22T11:14:04.085Z,975.54
2018-04-22T11:15:04.147Z,975.53
2018-04-22T11:16:04.136Z,975.51
2018-04-22T11:17:04.167Z,975.47
2018-04-22T11:18:04.186Z,975.41
2018-04-22T11:19:04.261Z,975.43
2018-04-22T11:20:04.229Z,975.42
2018-04-22T11:21:04.259Z,975.40
2018-04-22T11:22:04.306Z,975.38
2018-04-22T11:23:04.299Z,975.34
2018-04-22T11:24:04.376Z,975.37
2018-04-22T11:25:04.342Z,975.37
2018-04-22T11:26:04.359Z,975.38
2018-04-22T11:27:04.384Z,975.39
2018-04-22T11:28:04.408Z,975.37
2018-04-22T11:30:59.323Z,975.44
2018-04-22T11:31:36.123Z,975.38
2018-04-22T11:32:36.143Z,975.40
2018-04-22T11:33:36.163Z,975.37
2018-04-22T11:34:36.291Z,975.34
2018-04-22T11:35:36.213Z,975.35
2018-04-22T11:36:36.233Z,975.33
2018-04-22T11:37:36.256Z,975.30
2018-04-22T11:38:36.287Z,975.32
2018-04-22T11:39:36.353Z,975.33
2018-04-22T11:40:36.329Z,975.33
2018-04-22T11:41:36.346Z,975.32
2018-04-22T11:42:36.382Z,975.28
2018-04-22T11:43:36.399Z,975.28
2018-04-22T11:44:57.720Z,975.27
2018-04-22T11:45:36.447Z,975.22
2018-04-22T11:46:36.470Z,975.20
2018-04-22T11:47:36.500Z,975.17
2018-04-22T11:48:36.519Z,975.16
2018-04-22T11:49:36.605Z,975.19
2018-04-22T11:50:36.640Z,975.20
2018-04-22T11:51:36.597Z,975.18
2018-04-22T11:52:36.620Z,975.22
2018-04-22T11:53:36.636Z,975.21
2018-04-22T11:54:36.696Z,975.23
2018-04-22T11:55:36.694Z,975.22
2018-04-22T11:56:36.707Z,975.22
2018-04-22T11:57:36.729Z,975.17
2018-04-22T11:58:36.772Z,975.18
2018-04-22T11:59:37.729Z,975.09
2018-04-22T12:00:36.810Z,975.07
2018-04-22T12:01:36.851Z,975.04
2018-04-22T12:02:36.877Z,975.05
2018-04-22T12:03:36.875Z,975.03
2018-04-22T12:04:36.960Z,975.03
2018-04-22T12:05:36.920Z,975.04
2018-04-22T12:06:36.948Z,975.06
2018-04-22T12:07:36.967Z,974.99
2018-04-22T12:08:37.018Z,974.99
2018-04-22T12:09:37.095Z,974.96
2018-04-22T12:10:37.096Z,975.00
2018-04-22T12:11:37.500Z,974.95
2018-04-22T12:12:37.084Z,974.94
2018-04-22T12:13:37.111Z,974.97
2018-04-22T12:14:37.181Z,974.94
2018-04-22T12:15:37.210Z,974.94
2018-04-22T12:16:37.176Z,974.93
2018-04-22T12:17:37.198Z,974.88
2018-04-22T12:18:37.219Z,974.92
2018-04-22T12:19:37.291Z,974.93
2018-04-22T12:20:37.308Z,974.86
2018-04-22T12:21:37.293Z,974.83
2018-04-22T12:22:37.313Z,974.78
2018-04-22T12:23:37.337Z,974.75
2018-04-22T12:24:37.785Z,974.75
2018-04-22T12:25:37.388Z,974.80
2018-04-22T12:26:37.406Z,974.78
2018-04-22T12:27:37.428Z,974.76
2018-04-22T12:28:37.450Z,974.82
2018-04-22T12:29:37.481Z,974.78
2018-04-22T12:30:37.694Z,974.79